Quiring, Minnesota
Current Conditions -  °F | °C
As of 6:11 PM on Friday 28 Nov 2014 (Local Time) from KVWU Reporting Station
Overcast Overcast  
Wind Chill: 16°   Ceiling: 3600
Heat Index: 16°   Visibility: 10mi
Dew Point: 10°   Wind: 0mph
Humidity: 79%   Direction: NA
Pressure: 29.77"   Gusts: NA
Location:  47.7306°N, 94.3762°W
Report Text: KVWU 290011Z AUTO 00000KT 10SM BKN036 OVC060 M09/M12 A2977 RMK AO2
Loading
Personal Weather Stations






























Interactive Weather Map New forecast layout! Learn more

10-Day Weather Forecast

Advertisements
Track Severe Weather on mobile